»·PEaware :: SKY113 KPRC-KHII

SKY113 :: KPRC-KHII

FLIGHT INFORMATION

Flight Status: Arrived
Operator:
Sky High Charters
More flights by this operator :: More flights under this callsign
Pilot: Michal O. (28532)
Aircraft: Diamond DA-62
(DA62)
More flights by this aircraft type
Origin: KPRC Love
United States
Destination: KHII Lake Havasu City
United States
More flights between these airports :: More routes between these airports
Route: WNSKI2 MUMTE V12 EED
File this flight plan on PilotEdge
Remarks:
Altitude:
(Current/Filed)
10,000ft
Speed:
(Current/Filed)
180kts
Departed: 22-Jul-21 06:59 PM
Arrived: 22-Jul-21 07:59 PM
Distance/Time
Traveled:
96nm/1:00
Distance/Time
To Go:
Arrived

Flight Plot

Page will automatically refresh every two minutes.

Flight plan parsing failed; only flown route is shown


Map Options




Map Legend


Flown Route
Filed Route
Departure Airport
Arrival Airport
Navaid (VOR, NDB)
Fix

Horizontal Profiles

Position Reports

Time Latitude Longitude Heading Altitude Ground
Speed
22-Jul-21 18:39 34.646841 -112.424512 310 5028ft 0kts
22-Jul-21 18:40 34.646841 -112.424512 310 5028ft 0kts
22-Jul-21 18:41 34.646841 -112.424512 310 5028ft 0kts
22-Jul-21 18:42 34.646841 -112.424512 310 5028ft 0kts
22-Jul-21 18:43 34.646841 -112.424512 310 5028ft 0kts
22-Jul-21 18:44 34.646841 -112.424512 310 5028ft 0kts
22-Jul-21 18:45 34.646841 -112.424512 310 5028ft 0kts
22-Jul-21 18:46 34.646841 -112.424512 310 5028ft 0kts
22-Jul-21 18:47 34.646841 -112.424512 310 5028ft 0kts
22-Jul-21 18:48 34.646841 -112.424512 310 5028ft 0kts
22-Jul-21 18:49 34.646860 -112.424539 310 5028ft 0kts
22-Jul-21 18:50 34.646873 -112.424557 310 5028ft 0kts
22-Jul-21 18:51 34.646873 -112.424557 310 5028ft 0kts
22-Jul-21 18:52 34.646873 -112.424557 310 5028ft 0kts
22-Jul-21 18:53 34.646873 -112.424557 310 5028ft 0kts
22-Jul-21 18:54 34.646873 -112.424557 310 5028ft 0kts
22-Jul-21 18:55 34.649617 -112.422913 42 5014ft 36kts
22-Jul-21 18:56 34.656649 -112.415510 6 4976ft 17kts
22-Jul-21 18:57 34.656879 -112.415618 311 4975ft 0kts
22-Jul-21 18:58 34.650043 -112.424245 222 5139ft 99kts
22-Jul-21 18:59 34.628487 -112.430922 125 6690ft 100kts
22-Jul-21 19:00 34.639408 -112.396443 60 7848ft 118kts
22-Jul-21 19:01 34.623526 -112.363475 140 8909ft 130kts
22-Jul-21 19:02 34.596593 -112.333545 135 9962ft 137kts
22-Jul-21 19:03 34.566542 -112.291775 132 9986ft 182kts
22-Jul-21 19:04 34.525320 -112.270189 212 9979ft 177kts
22-Jul-21 19:05 34.493033 -112.314263 238 9980ft 175kts
22-Jul-21 19:06 34.470563 -112.366615 249 9980ft 175kts
22-Jul-21 19:07 34.456909 -112.422866 259 9980ft 174kts
22-Jul-21 19:08 34.452400 -112.481531 270 9979ft 174kts
22-Jul-21 19:09 34.457295 -112.540124 280 9979ft 174kts
22-Jul-21 19:10 34.471491 -112.596731 291 9980ft 176kts
22-Jul-21 19:11 34.494677 -112.649357 301 9979ft 177kts
22-Jul-21 19:12 34.526255 -112.695955 312 9981ft 179kts
22-Jul-21 19:13 34.565214 -112.734419 323 9981ft 181kts
22-Jul-21 19:14 34.610266 -112.762970 335 9981ft 183kts
22-Jul-21 19:15 34.659530 -112.779983 347 9981ft 185kts
22-Jul-21 19:16 34.711164 -112.785619 337 9972ft 184kts
22-Jul-21 19:17 34.716874 -112.840086 268 9937ft 178kts
22-Jul-21 19:18 34.718462 -112.896641 271 10581ft 156kts
22-Jul-21 19:19 34.720333 -112.947931 270 11373ft 148kts
22-Jul-21 19:20 34.722206 -113.000505 271 11708ft 170kts
22-Jul-21 19:21 34.724308 -113.061195 271 11635ft 183kts
22-Jul-21 19:22 34.726482 -113.123584 271 11639ft 184kts
22-Jul-21 19:23 34.728630 -113.185961 270 11644ft 184kts
22-Jul-21 19:24 34.730741 -113.248358 270 11649ft 184kts
22-Jul-21 19:25 34.732841 -113.311021 270 11654ft 184kts
22-Jul-21 19:26 34.734877 -113.373188 270 11659ft 183kts
22-Jul-21 19:27 34.736896 -113.435634 270 11663ft 184kts
22-Jul-21 19:28 34.738886 -113.498128 270 11668ft 184kts
22-Jul-21 19:29 34.740844 -113.560610 270 11672ft 184kts
22-Jul-21 19:30 34.742773 -113.623139 270 11677ft 184kts
22-Jul-21 19:31 34.744668 -113.685694 269 11682ft 184kts
22-Jul-21 19:32 34.746540 -113.748216 269 11687ft 184kts
22-Jul-21 19:33 34.748389 -113.810997 269 11691ft 184kts
22-Jul-21 19:34 34.750256 -113.873716 269 11695ft 184kts
22-Jul-21 19:35 34.752019 -113.936167 269 11699ft 184kts
22-Jul-21 19:36 34.753737 -113.997398 269 11699ft 169kts
22-Jul-21 19:37 34.755250 -114.053165 268 11256ft 157kts
22-Jul-21 19:38 34.756504 -114.099339 267 10849ft 152kts
22-Jul-21 19:39 34.757729 -114.150026 267 10379ft 150kts
22-Jul-21 19:40 34.759017 -114.201759 268 9763ft 151kts
22-Jul-21 19:41 34.760352 -114.252552 267 9040ft 147kts
22-Jul-21 19:42 34.761633 -114.302472 267 8338ft 146kts
22-Jul-21 19:43 34.762865 -114.352139 267 7638ft 147kts
22-Jul-21 19:45 34.764113 -114.402477 267 6939ft 148kts
22-Jul-21 19:46 34.765252 -114.452772 267 6235ft 147kts
22-Jul-21 19:47 34.777277 -114.501180 289 5527ft 152kts
22-Jul-21 19:48 34.801713 -114.544067 307 4825ft 157kts
22-Jul-21 19:49 34.833062 -114.532291 93 4100ft 156kts
22-Jul-21 19:50 34.812522 -114.496696 162 3623ft 128kts
22-Jul-21 19:51 34.781977 -114.481359 160 3624ft 113kts
22-Jul-21 19:52 34.751566 -114.464940 159 3370ft 130kts
22-Jul-21 19:53 34.717564 -114.445272 157 3124ft 131kts
22-Jul-21 19:54 34.684544 -114.425686 157 3126ft 134kts
22-Jul-21 19:55 34.650513 -114.405595 157 2809ft 131kts
22-Jul-21 19:56 34.620615 -114.387831 157 2227ft 98kts
22-Jul-21 19:57 34.599003 -114.377376 167 1542ft 82kts
22-Jul-21 19:58 34.579406 -114.364223 155 763ft 72kts
22-Jul-21 19:59 34.574201 -114.362433 338 753ft 12kts
22-Jul-21 20:00 34.574070 -114.362620 54 750ft 0kts
22-Jul-21 20:01 34.574070 -114.362620 54 750ft 0kts
22-Jul-21 20:02 34.574070 -114.362620 54 750ft 0kts
22-Jul-21 20:03 34.574070 -114.362620 54 750ft 0kts
22-Jul-21 20:04 34.574070 -114.362620 54 750ft 0kts
22-Jul-21 20:05 34.574070 -114.362620 54 750ft 0kts
22-Jul-21 20:06 34.574070 -114.362620 54 750ft 0kts
22-Jul-21 20:07 34.574070 -114.362620 54 750ft 0kts

Navigation Log

Ident Type
Flight plan parsing failed, navigation log unavailable